createdAt,value
2023-05-23T00:01:14.714Z,15.29
2023-05-23T00:03:41.314Z,15.32
2023-05-23T00:06:08.191Z,15.31
2023-05-23T00:08:34.916Z,15.25
2023-05-23T00:11:01.416Z,15.25
2023-05-23T00:13:27.956Z,15.11
2023-05-23T00:15:54.556Z,15.09
2023-05-23T00:18:20.984Z,15.08
2023-05-23T00:20:47.452Z,15.10
2023-05-23T00:23:19.074Z,15.02
2023-05-23T00:25:48.535Z,14.94
2023-05-23T00:28:16.008Z,14.87
2023-05-23T00:30:43.036Z,14.73
2023-05-23T00:33:09.658Z,14.64
2023-05-23T00:35:36.145Z,14.62
2023-05-23T00:38:03.451Z,14.54
2023-05-23T00:40:29.964Z,14.52
2023-05-23T00:42:56.772Z,14.41
2023-05-23T00:45:23.449Z,14.29
2023-05-23T00:47:51.512Z,14.30
2023-05-23T00:50:18.622Z,14.27
2023-05-23T00:52:47.002Z,14.14
2023-05-23T00:55:14.464Z,14.13
2023-05-23T00:57:41.613Z,14.18
2023-05-23T01:00:10.062Z,14.18
2023-05-23T01:02:43.532Z,14.19
2023-05-23T01:05:11.513Z,14.16
2023-05-23T01:07:38.064Z,14.12
2023-05-23T01:10:05.309Z,14.04
2023-05-23T01:12:44.980Z,14.02
2023-05-23T01:15:15.478Z,13.98
2023-05-23T01:18:04.936Z,13.95
2023-05-23T01:20:36.330Z,13.99
2023-05-23T01:23:21.273Z,14.00
2023-05-23T01:25:50.865Z,14.09
2023-05-23T01:28:21.380Z,14.11
2023-05-23T01:30:52.267Z,14.12
2023-05-23T01:33:22.652Z,14.18
2023-05-23T01:35:49.595Z,14.22
2023-05-23T01:38:16.225Z,14.26
2023-05-23T01:40:42.754Z,14.33
2023-05-23T01:43:09.518Z,14.32
2023-05-23T01:45:36.326Z,14.35
2023-05-23T01:48:04.194Z,14.28
2023-05-23T01:50:32.636Z,14.21
2023-05-23T01:52:59.684Z,14.15
2023-05-23T01:55:27.055Z,14.18
2023-05-23T01:57:59.507Z,14.20
2023-05-23T02:00:26.062Z,14.17
2023-05-23T02:02:52.816Z,14.16
2023-05-23T02:05:19.388Z,14.14
2023-05-23T02:07:46.049Z,14.16
2023-05-23T02:10:12.617Z,14.16
2023-05-23T02:12:39.049Z,14.16
2023-05-23T02:15:05.955Z,14.12
2023-05-23T02:17:32.708Z,14.11
2023-05-23T02:19:59.174Z,14.17
2023-05-23T02:22:25.839Z,14.21
2023-05-23T02:24:52.736Z,14.24
2023-05-23T02:27:19.862Z,14.23
2023-05-23T02:29:46.536Z,14.16
2023-05-23T02:32:13.211Z,14.14
2023-05-23T02:34:40.309Z,14.16
2023-05-23T02:37:07.118Z,14.18
2023-05-23T02:39:37.044Z,14.22
2023-05-23T02:42:04.797Z,14.26
2023-05-23T02:44:31.553Z,14.28
2023-05-23T02:46:58.236Z,14.28
2023-05-23T02:49:24.648Z,14.28
2023-05-23T02:51:51.450Z,14.34
2023-05-23T02:54:17.871Z,14.36
2023-05-23T02:56:45.921Z,14.32
2023-05-23T02:59:12.636Z,14.34
2023-05-23T03:01:39.147Z,14.32
2023-05-23T03:04:05.757Z,14.31
2023-05-23T03:06:33.935Z,14.31
2023-05-23T03:09:01.360Z,14.32
2023-05-23T03:11:29.736Z,14.30
2023-05-23T03:13:56.421Z,14.33
2023-05-23T03:16:24.055Z,14.26
2023-05-23T03:18:50.609Z,14.25
2023-05-23T03:21:17.113Z,14.22
2023-05-23T03:23:43.528Z,14.21
2023-05-23T03:26:10.487Z,14.21
2023-05-23T03:28:36.947Z,14.15
2023-05-23T03:31:03.510Z,14.05
2023-05-23T03:33:29.908Z,13.99
2023-05-23T03:35:57.611Z,13.98
2023-05-23T03:38:24.074Z,13.96
2023-05-23T03:40:50.553Z,13.95
2023-05-23T03:43:16.940Z,13.92
2023-05-23T03:45:43.714Z,13.91
2023-05-23T03:48:10.855Z,13.95
2023-05-23T03:50:37.332Z,13.93
2023-05-23T03:53:03.816Z,13.95
2023-05-23T03:55:32.518Z,13.90
2023-05-23T03:57:59.172Z,13.86
2023-05-23T04:00:26.263Z,13.83
2023-05-23T04:02:53.104Z,13.77
2023-05-23T04:05:19.645Z,13.70
2023-05-23T04:07:46.628Z,13.73
2023-05-23T04:10:13.123Z,13.77
2023-05-23T04:12:41.547Z,13.76
2023-05-23T04:15:08.936Z,13.75
2023-05-23T04:17:35.581Z,13.71
2023-05-23T04:20:02.098Z,13.69
2023-05-23T04:22:28.522Z,13.67
2023-05-23T04:24:54.914Z,13.63
2023-05-23T04:27:22.290Z,13.62
2023-05-23T04:29:48.900Z,13.64
2023-05-23T04:32:16.833Z,13.62
2023-05-23T04:34:44.319Z,13.58
2023-05-23T04:37:11.638Z,13.52
2023-05-23T04:39:38.518Z,13.45
2023-05-23T04:42:07.345Z,13.44
2023-05-23T04:44:34.131Z,13.38
2023-05-23T04:47:02.503Z,13.40
2023-05-23T04:49:29.443Z,13.37
2023-05-23T04:51:55.943Z,13.35
2023-05-23T04:54:22.347Z,13.32
2023-05-23T04:56:49.088Z,13.30
2023-05-23T04:59:15.621Z,13.27
2023-05-23T05:01:42.178Z,13.20
2023-05-23T05:04:08.715Z,13.19
2023-05-23T05:06:35.423Z,13.17
2023-05-23T05:09:01.963Z,13.12
2023-05-23T05:11:28.627Z,13.15
2023-05-23T05:13:55.191Z,13.17
2023-05-23T05:16:22.312Z,13.17
2023-05-23T05:18:48.916Z,13.17
2023-05-23T05:21:15.434Z,13.17
2023-05-23T05:23:41.917Z,13.24
2023-05-23T05:26:08.714Z,13.23
2023-05-23T05:28:35.340Z,13.16
2023-05-23T05:31:07.721Z,13.11
2023-05-23T05:33:37.770Z,13.04
2023-05-23T05:36:07.994Z,13.03
2023-05-23T05:38:44.663Z,12.97
2023-05-23T05:41:11.148Z,12.98
2023-05-23T05:43:37.632Z,13.08
2023-05-23T05:46:04.398Z,13.15
2023-05-23T05:48:30.878Z,13.14
2023-05-23T05:50:57.521Z,13.17
2023-05-23T05:53:25.840Z,13.15
2023-05-23T05:55:54.552Z,13.23
2023-05-23T05:58:21.100Z,13.29
2023-05-23T06:00:48.951Z,13.26
2023-05-23T06:03:15.870Z,13.25
2023-05-23T06:05:43.374Z,13.26
2023-05-23T06:08:10.419Z,13.22
2023-05-23T06:10:39.866Z,13.21
2023-05-23T06:13:06.743Z,13.29
2023-05-23T06:15:33.341Z,13.30
2023-05-23T06:17:59.998Z,13.34
2023-05-23T06:20:26.638Z,13.34
2023-05-23T06:22:53.281Z,13.26
2023-05-23T06:25:20.042Z,13.25
2023-05-23T06:27:46.786Z,13.24
2023-05-23T06:30:14.028Z,13.32
2023-05-23T06:32:41.131Z,13.42
2023-05-23T06:35:08.098Z,13.40
2023-05-23T06:37:35.451Z,13.36
2023-05-23T06:40:02.161Z,13.32
2023-05-23T06:42:28.837Z,13.35
2023-05-23T06:44:55.452Z,13.36
2023-05-23T06:47:22.929Z,13.31
2023-05-23T06:49:49.529Z,13.27
2023-05-23T06:52:16.429Z,13.36
2023-05-23T06:54:43.653Z,13.40
2023-05-23T06:57:10.255Z,13.39
2023-05-23T06:59:36.806Z,13.36
2023-05-23T07:02:05.645Z,13.40
2023-05-23T07:04:32.204Z,13.42
2023-05-23T07:06:58.892Z,13.43
2023-05-23T07:09:25.742Z,13.42
2023-05-23T07:11:52.278Z,13.40
2023-05-23T07:14:20.359Z,13.38
2023-05-23T07:16:47.039Z,13.42
2023-05-23T07:19:13.654Z,13.25
2023-05-23T07:21:40.232Z,13.15
2023-05-23T07:24:06.931Z,13.12
2023-05-23T07:26:33.504Z,13.15
2023-05-23T07:29:00.138Z,13.21
2023-05-23T07:31:27.061Z,13.33
2023-05-23T07:33:56.808Z,13.46
2023-05-23T07:36:23.743Z,13.53
2023-05-23T07:38:50.280Z,13.61
2023-05-23T07:41:16.846Z,13.65
2023-05-23T07:43:43.423Z,13.69
2023-05-23T07:46:10.068Z,13.69
2023-05-23T07:48:36.762Z,13.71
2023-05-23T07:51:03.947Z,13.70
2023-05-23T07:53:30.727Z,13.74
2023-05-23T07:55:57.353Z,13.79
2023-05-23T07:58:23.871Z,13.88
2023-05-23T08:00:52.490Z,14.07
2023-05-23T08:03:19.658Z,14.18
2023-05-23T08:05:47.393Z,14.27
2023-05-23T08:08:13.982Z,14.27
2023-05-23T08:10:41.023Z,14.30
2023-05-23T08:13:10.141Z,14.25
2023-05-23T08:15:36.768Z,14.27
2023-05-23T08:18:05.300Z,14.31
2023-05-23T08:20:32.342Z,14.32
2023-05-23T08:23:03.292Z,14.31
2023-05-23T08:25:30.649Z,14.31
2023-05-23T08:28:01.450Z,14.31
2023-05-23T08:30:29.274Z,14.30
2023-05-23T08:32:57.018Z,14.33
2023-05-23T08:35:24.375Z,14.42
2023-05-23T08:37:52.355Z,14.54
2023-05-23T08:40:21.390Z,14.59
2023-05-23T08:42:49.145Z,14.56
2023-05-23T08:45:19.910Z,14.62
2023-05-23T08:47:46.799Z,14.55
2023-05-23T08:50:16.507Z,14.56
2023-05-23T08:52:45.948Z,14.71
2023-05-23T08:55:13.046Z,14.87
2023-05-23T08:57:43.754Z,14.99
2023-05-23T09:00:15.019Z,15.12
2023-05-23T09:02:44.938Z,15.00
2023-05-23T09:05:12.475Z,14.96
2023-05-23T09:07:39.869Z,14.98
2023-05-23T09:10:08.032Z,15.01
2023-05-23T09:12:37.153Z,15.07
2023-05-23T09:15:05.706Z,15.23
2023-05-23T09:17:33.526Z,15.42
2023-05-23T09:20:00.925Z,15.54
2023-05-23T09:22:28.488Z,15.43
2023-05-23T09:24:56.170Z,15.53
2023-05-23T09:27:23.691Z,15.44
2023-05-23T09:29:50.766Z,15.46
2023-05-23T09:32:19.709Z,15.52
2023-05-23T09:34:57.100Z,15.64
2023-05-23T09:37:41.028Z,15.70
2023-05-23T09:40:13.291Z,15.69
2023-05-23T09:42:46.135Z,15.69
2023-05-23T09:45:17.334Z,15.97
2023-05-23T09:47:51.912Z,16.15
2023-05-23T09:50:19.176Z,16.15
2023-05-23T09:52:46.678Z,16.33
2023-05-23T09:55:15.826Z,16.58
2023-05-23T09:57:44.240Z,16.88
2023-05-23T10:00:13.752Z,16.95
2023-05-23T10:02:46.463Z,16.51
2023-05-23T10:05:27.330Z,16.16
2023-05-23T10:07:54.269Z,16.25
2023-05-23T10:10:21.158Z,16.41
2023-05-23T10:12:51.824Z,16.64
2023-05-23T10:15:20.161Z,17.03
2023-05-23T10:17:59.578Z,17.27
2023-05-23T10:20:31.925Z,17.25
2023-05-23T10:23:03.332Z,17.16
2023-05-23T10:25:30.399Z,16.93
2023-05-23T10:28:04.437Z,17.03
2023-05-23T10:30:31.592Z,16.99
2023-05-23T10:32:59.912Z,16.72
2023-05-23T10:35:30.523Z,16.64
2023-05-23T10:38:00.050Z,16.65
2023-05-23T10:40:26.576Z,16.91
2023-05-23T10:43:00.304Z,17.04
2023-05-23T10:45:27.913Z,16.92
2023-05-23T10:47:54.764Z,16.95
2023-05-23T10:50:33.563Z,17.21
2023-05-23T10:53:03.277Z,17.20
2023-05-23T10:55:34.795Z,16.87
2023-05-23T10:58:12.013Z,16.67
2023-05-23T11:00:39.063Z,16.67
2023-05-23T11:03:09.269Z,16.58
2023-05-23T11:05:38.732Z,16.81
2023-05-23T11:08:11.574Z,17.17
2023-05-23T11:10:54.302Z,17.17
2023-05-23T11:13:21.909Z,17.08
2023-05-23T11:15:49.164Z,17.09
2023-05-23T11:18:29.066Z,17.63
2023-05-23T11:20:55.680Z,18.25
2023-05-23T11:23:23.106Z,18.19
2023-05-23T11:25:52.123Z,17.82
2023-05-23T11:28:19.554Z,17.41
2023-05-23T11:30:49.753Z,17.22
2023-05-23T11:33:18.372Z,17.36
2023-05-23T11:35:48.026Z,17.39
2023-05-23T11:38:16.748Z,17.33
2023-05-23T11:40:47.710Z,17.29
2023-05-23T11:43:19.812Z,17.22
2023-05-23T11:45:49.408Z,17.28
2023-05-23T11:48:17.701Z,17.46
2023-05-23T11:50:50.036Z,17.57
2023-05-23T11:53:20.970Z,17.68
2023-05-23T11:56:00.319Z,17.88
2023-05-23T11:58:30.396Z,17.63
2023-05-23T12:01:05.478Z,17.43
2023-05-23T12:03:33.126Z,17.24
2023-05-23T12:06:01.904Z,17.48
2023-05-23T12:08:28.488Z,17.55
2023-05-23T12:11:00.131Z,17.18
2023-05-23T12:13:29.086Z,17.08
2023-05-23T12:16:00.503Z,17.52
2023-05-23T12:18:33.899Z,17.62
2023-05-23T12:21:07.993Z,17.66
2023-05-23T12:23:35.991Z,17.55
2023-05-23T12:26:10.395Z,17.34
2023-05-23T12:28:38.901Z,17.67
2023-05-23T12:31:16.845Z,18.35
2023-05-23T12:33:45.437Z,18.80
2023-05-23T12:36:12.529Z,18.65
2023-05-23T12:38:40.939Z,18.19
2023-05-23T12:41:19.915Z,17.89
2023-05-23T12:43:54.944Z,18.23
2023-05-23T12:46:23.637Z,18.73
2023-05-23T12:48:50.779Z,18.51
2023-05-23T12:51:17.605Z,18.23
2023-05-23T12:53:44.259Z,18.09
2023-05-23T12:56:11.795Z,17.85
2023-05-23T12:58:38.428Z,17.65
2023-05-23T13:01:05.116Z,17.70
2023-05-23T13:03:32.480Z,17.96
2023-05-23T13:05:59.921Z,18.39
2023-05-23T13:08:27.538Z,18.69
2023-05-23T13:10:54.404Z,18.70
2023-05-23T13:13:21.089Z,18.60
2023-05-23T13:15:48.959Z,18.39
2023-05-23T13:18:17.573Z,18.21
2023-05-23T13:20:44.232Z,18.02
2023-05-23T13:23:10.885Z,18.10
2023-05-23T13:25:37.512Z,18.40
2023-05-23T13:28:04.105Z,18.08
2023-05-23T13:30:31.256Z,17.57
2023-05-23T13:32:57.932Z,17.18
2023-05-23T13:35:24.590Z,17.52
2023-05-23T13:37:51.224Z,17.85
2023-05-23T13:40:20.455Z,18.44
2023-05-23T13:42:51.503Z,18.59
2023-05-23T13:45:19.136Z,18.56
2023-05-23T13:47:46.716Z,18.31
2023-05-23T13:50:13.816Z,17.84
2023-05-23T13:52:44.139Z,17.50
2023-05-23T13:55:12.540Z,17.50
2023-05-23T13:57:39.159Z,18.26
2023-05-23T14:00:06.380Z,18.36
2023-05-23T14:02:33.019Z,18.22
2023-05-23T14:04:59.589Z,18.25
2023-05-23T14:07:26.215Z,18.19
2023-05-23T14:09:52.755Z,18.07
2023-05-23T14:12:19.303Z,18.15
2023-05-23T14:14:45.908Z,18.23
2023-05-23T14:17:16.868Z,18.25
2023-05-23T14:19:44.134Z,18.09
2023-05-23T14:22:11.596Z,17.87
2023-05-23T14:24:38.157Z,17.81
2023-05-23T14:27:05.058Z,17.68
2023-05-23T14:29:31.812Z,17.95
2023-05-23T14:32:00.872Z,17.88
2023-05-23T14:34:27.569Z,17.96
2023-05-23T14:36:54.270Z,18.35
2023-05-23T14:39:20.927Z,18.28
2023-05-23T14:41:47.493Z,18.85
2023-05-23T14:44:14.139Z,19.03
2023-05-23T14:46:42.728Z,18.96
2023-05-23T14:49:09.353Z,18.83
2023-05-23T14:51:46.177Z,18.47
2023-05-23T14:54:17.100Z,18.06
2023-05-23T14:56:46.826Z,17.64
2023-05-23T14:59:13.515Z,17.24
2023-05-23T15:01:40.867Z,17.12
2023-05-23T15:04:09.838Z,17.01
2023-05-23T15:06:38.187Z,17.22
2023-05-23T15:09:05.282Z,17.58
2023-05-23T15:11:42.447Z,17.98
2023-05-23T15:14:09.062Z,18.26
2023-05-23T15:16:36.941Z,18.82
2023-05-23T15:19:05.602Z,19.15
2023-05-23T15:21:32.349Z,19.48
2023-05-23T15:23:59.865Z,19.86
2023-05-23T15:26:27.455Z,20.03
2023-05-23T15:28:54.051Z,20.15
2023-05-23T15:31:20.945Z,20.43
2023-05-23T15:33:48.017Z,20.56
2023-05-23T15:36:14.684Z,20.78
2023-05-23T15:38:41.254Z,20.92
2023-05-23T15:41:07.888Z,21.10
2023-05-23T15:43:37.638Z,21.05
2023-05-23T15:46:05.123Z,21.00
2023-05-23T15:48:31.740Z,20.51
2023-05-23T15:50:58.283Z,20.62
2023-05-23T15:53:24.835Z,20.91
2023-05-23T15:55:51.403Z,21.25
2023-05-23T15:58:18.200Z,21.15
2023-05-23T16:00:44.850Z,20.76
2023-05-23T16:03:11.474Z,20.63
2023-05-23T16:05:38.227Z,20.89
2023-05-23T16:08:05.085Z,21.03
2023-05-23T16:10:31.645Z,21.18
2023-05-23T16:12:58.180Z,21.34
2023-05-23T16:15:24.735Z,21.22
2023-05-23T16:17:51.616Z,21.18
2023-05-23T16:20:18.351Z,21.33
2023-05-23T16:22:45.959Z,21.63
2023-05-23T16:25:12.701Z,21.63
2023-05-23T16:27:40.627Z,21.36
2023-05-23T16:30:08.014Z,21.10
2023-05-23T16:32:34.666Z,21.37
2023-05-23T16:35:01.564Z,21.85
2023-05-23T16:37:28.304Z,22.35
2023-05-23T16:39:54.943Z,22.54
2023-05-23T16:42:22.505Z,22.20
2023-05-23T16:44:49.244Z,22.02
2023-05-23T16:47:17.308Z,22.19
2023-05-23T16:49:43.915Z,22.08
2023-05-23T16:52:10.489Z,22.20
2023-05-23T16:54:37.352Z,22.39
2023-05-23T16:57:06.826Z,22.35
2023-05-23T17:02:00.080Z,22.41
2023-05-23T17:04:28.449Z,22.24
2023-05-23T17:06:55.070Z,22.33
2023-05-23T17:09:22.699Z,22.40
2023-05-23T17:11:51.209Z,22.39
2023-05-23T17:14:17.791Z,22.54
2023-05-23T17:16:44.412Z,22.78
2023-05-23T17:19:11.127Z,22.22
2023-05-23T17:21:37.787Z,21.64
2023-05-23T17:24:04.618Z,20.83
2023-05-23T17:26:31.247Z,21.09
2023-05-23T17:28:57.846Z,21.22
2023-05-23T17:31:24.602Z,21.38
2023-05-23T17:33:51.162Z,21.45
2023-05-23T17:36:17.748Z,21.71
2023-05-23T17:38:44.410Z,21.50
2023-05-23T17:41:11.042Z,20.50
2023-05-23T17:43:37.526Z,19.76
2023-05-23T17:46:05.149Z,19.23
2023-05-23T17:48:45.712Z,18.62
2023-05-23T17:51:14.023Z,18.24
2023-05-23T17:53:41.745Z,17.82
2023-05-23T17:56:09.552Z,17.42
2023-05-23T17:58:37.695Z,17.20
2023-05-23T18:01:07.918Z,16.88
2023-05-23T18:03:34.540Z,16.70
2023-05-23T18:06:01.157Z,16.68
2023-05-23T18:08:27.726Z,16.43
2023-05-23T18:10:54.318Z,16.26
2023-05-23T18:13:21.402Z,16.24
2023-05-23T18:15:47.961Z,16.20
2023-05-23T18:18:16.577Z,15.86
2023-05-23T18:20:43.554Z,15.56
2023-05-23T18:23:10.710Z,15.38
2023-05-23T18:25:37.327Z,15.23
2023-05-23T18:28:03.957Z,15.11
2023-05-23T18:30:30.648Z,15.02
2023-05-23T18:32:59.128Z,14.98
2023-05-23T18:35:26.041Z,14.86
2023-05-23T18:37:53.862Z,14.80
2023-05-23T18:40:21.853Z,14.72
2023-05-23T18:42:48.651Z,14.67
2023-05-23T18:45:15.317Z,14.63
2023-05-23T18:47:42.320Z,14.52
2023-05-23T18:50:09.351Z,14.32
2023-05-23T18:52:37.337Z,14.24
2023-05-23T18:55:05.237Z,14.21
2023-05-23T18:57:32.396Z,14.15
2023-05-23T18:59:58.912Z,14.10
2023-05-23T19:02:26.009Z,14.07
2023-05-23T19:04:52.831Z,14.02
2023-05-23T19:07:19.545Z,14.00
2023-05-23T19:09:46.987Z,14.02
2023-05-23T19:12:13.624Z,14.05
2023-05-23T19:14:40.226Z,14.00
2023-05-23T19:17:07.155Z,14.00
2023-05-23T19:19:34.852Z,13.97
2023-05-23T19:22:01.592Z,13.86
2023-05-23T19:24:28.190Z,13.73
2023-05-23T19:26:56.260Z,13.58
2023-05-23T19:29:22.806Z,13.51
2023-05-23T19:31:49.498Z,13.46
2023-05-23T19:34:16.278Z,13.41
2023-05-23T19:36:43.800Z,13.32
2023-05-23T19:39:12.368Z,13.28
2023-05-23T19:41:40.289Z,13.22
2023-05-23T19:44:06.906Z,13.11
2023-05-23T19:46:35.709Z,13.08
2023-05-23T19:49:02.466Z,13.05
2023-05-23T19:51:29.170Z,12.97
2023-05-23T19:53:55.919Z,12.89
2023-05-23T19:56:22.940Z,12.86
2023-05-23T19:58:49.484Z,12.83
2023-05-23T20:01:16.069Z,12.81
2023-05-23T20:03:43.057Z,12.75
2023-05-23T20:06:09.885Z,12.76
2023-05-23T20:08:36.407Z,12.70
2023-05-23T20:11:04.514Z,12.63
2023-05-23T20:13:31.147Z,12.56
2023-05-23T20:15:58.357Z,12.56
2023-05-23T20:18:25.056Z,12.57
2023-05-23T20:20:51.572Z,12.52
2023-05-23T20:23:18.343Z,12.48
2023-05-23T20:25:44.985Z,12.50
2023-05-23T20:28:11.861Z,12.46
2023-05-23T20:30:38.460Z,12.42
2023-05-23T20:33:05.072Z,12.40
2023-05-23T20:35:31.965Z,12.37
2023-05-23T20:37:59.382Z,12.33
2023-05-23T20:40:27.425Z,12.28
2023-05-23T20:42:53.884Z,12.26
2023-05-23T20:45:20.504Z,12.25
2023-05-23T20:47:47.392Z,12.24
2023-05-23T20:50:14.951Z,12.22
2023-05-23T20:52:43.088Z,12.19
2023-05-23T20:55:10.836Z,12.20
2023-05-23T20:57:37.814Z,12.15
2023-05-23T21:00:13.466Z,12.11
2023-05-23T21:02:41.287Z,12.11
2023-05-23T21:05:09.241Z,12.09
2023-05-23T21:07:36.681Z,12.07
2023-05-23T21:10:04.527Z,12.09
2023-05-23T21:12:31.060Z,12.07
2023-05-23T21:14:57.655Z,12.00
2023-05-23T21:17:24.685Z,11.95
2023-05-23T21:19:51.603Z,11.94
2023-05-23T21:22:18.231Z,11.91
2023-05-23T21:24:44.744Z,11.86
2023-05-23T21:27:11.687Z,11.73
2023-05-23T21:29:38.238Z,11.62
2023-05-23T21:32:04.951Z,11.57
2023-05-23T21:34:31.441Z,11.50
2023-05-23T21:36:58.072Z,11.41
2023-05-23T21:39:25.279Z,11.34
2023-05-23T21:41:52.664Z,11.28
2023-05-23T21:44:20.201Z,11.12
2023-05-23T21:46:47.149Z,10.99
2023-05-23T21:49:14.021Z,10.87
2023-05-23T21:51:40.568Z,10.77
2023-05-23T21:54:07.118Z,10.64
2023-05-23T21:56:33.958Z,10.61
2023-05-23T21:59:00.488Z,10.54
2023-05-23T22:01:27.002Z,10.47
2023-05-23T22:03:53.692Z,10.33
2023-05-23T22:06:20.339Z,10.24
2023-05-23T22:08:46.797Z,10.18
2023-05-23T22:11:13.301Z,10.12
2023-05-23T22:13:42.755Z,10.06
2023-05-23T22:16:09.411Z,10.02
2023-05-23T22:18:51.150Z,10.02
2023-05-23T22:21:18.274Z,9.95
2023-05-23T22:23:44.730Z,9.87
2023-05-23T22:26:12.580Z,9.81
2023-05-23T22:28:39.203Z,9.80
2023-05-23T22:31:05.850Z,9.76
2023-05-23T22:33:32.375Z,9.70
2023-05-23T22:35:58.974Z,9.65
2023-05-23T22:38:25.629Z,9.62
2023-05-23T22:40:52.138Z,9.58
2023-05-23T22:43:21.649Z,9.55
2023-05-23T22:45:50.129Z,9.52
2023-05-23T22:48:19.386Z,9.44
2023-05-23T22:50:46.733Z,9.41
2023-05-23T22:53:16.678Z,9.42
2023-05-23T22:55:43.428Z,9.31
2023-05-23T22:58:10.655Z,9.21
2023-05-23T23:00:37.264Z,9.14
2023-05-23T23:03:04.242Z,9.12
2023-05-23T23:05:31.031Z,9.13
2023-05-23T23:07:57.721Z,9.16
2023-05-23T23:10:24.762Z,9.07
2023-05-23T23:12:51.275Z,9.01
2023-05-23T23:15:17.858Z,8.96
2023-05-23T23:17:44.984Z,8.95
2023-05-23T23:20:12.850Z,8.96
2023-05-23T23:22:39.799Z,8.91
2023-05-23T23:25:10.751Z,8.88
2023-05-23T23:27:38.232Z,8.78
2023-05-23T23:30:08.557Z,8.73
2023-05-23T23:32:35.462Z,8.65
2023-05-23T23:35:02.284Z,8.63
2023-05-23T23:37:28.986Z,8.55
2023-05-23T23:39:55.645Z,8.54
2023-05-23T23:42:22.173Z,8.53
2023-05-23T23:44:48.710Z,8.46
2023-05-23T23:47:15.436Z,8.42
2023-05-23T23:49:42.471Z,8.35
2023-05-23T23:52:09.436Z,8.31
2023-05-23T23:54:36.040Z,8.33
2023-05-23T23:57:02.741Z,8.35
2023-05-23T23:59:30.265Z,8.33
